Airfield :
LOGIN :

Register | Disclaimer

   EN    FR    IT 

 










Legend :    VFR   Marginal VFR   IFR   Intensive IFR   Very Intensive IFR
Visi :
Ceiling :
>= 8 km
>= 3000ft
5 to 8 km
1000 to 3000 ft
1500m to 5 km
500 to 1000 ft
800 to 1500m
200 to 500 ft
< 800m
< 200 ft
Symbols :   Thunderstorms  Fog  Heavy snow  Heavy precipitations  Wind > 20 kt
SIGMETs :     Misc.  Thunderstorms  Icing  Turbulence  Mountain Waves  Volcanic Ashes






- Airport Elevation : 741 ft
- IATA code : PED


LKPD - Pardubice AB

CURRENT METAR :
  • 180830Z 27004KT 230V320 9999 SCT012 BKN028 07/04 Q1018 NOSIG RMK BLU BLU

EXPIRED METARs :
  • 180800Z 26005KT 9999 FEW012 BKN027 06/04 Q1018 NOSIG RMK BLU BLU
  • 180730Z 26006KT 9999 FEW011 OVC026 06/03 Q1018 NOSIG RMK BLU BLU
  • 180700Z 26005KT 9999 OVC025 05/03 Q1018 NOSIG RMK BLU BLU
  • 180630Z 27004KT 9999 OVC025 05/03 Q1019 NOSIG RMK BLU BLU
  • 180600Z 26004KT 9999 OVC025 05/03 Q1018 NOSIG RMK BLU BLU

TAF TAF LKPD
Valid from the 18 at 06:00 until the 19 at 06:00 UTC


180500Z 1806/1906 27004KT 9999 BKN030
TEMPO 1806/1809 6000 BKN013
TEMPO 1809/1811 BKN022
PROB30
TEMPO 1812/1817 36008KT 7000 SHRA BKN020
BECMG 1815/1817 VRB02KT
PROB30
TEMPO 1822/1905 3000 BR SCT010



MET'MAP, your aeronautical weather chart ! - Copyright ORBIFLY December 2007 - Disclaimer

ORBIFLY MET'MAP TEAM :

Programming & Development : Alexandra Zaïnal
Concept & original design : Baudouin d'Aumeries
Assistance for programming : Marc-Olivier Méhu
Technical & hardware support : Manuel Goepfert

Contact : metmap@orbifly.com




SOURCES & CREDITS :

   NOAA